createdAt,value
2022-08-09T00:01:52.867Z,4.30
2022-08-09T00:04:35.054Z,7.00
2022-08-09T00:07:07.830Z,8.00
2022-08-09T00:09:39.685Z,4.90
2022-08-09T00:12:15.534Z,5.00
2022-08-09T00:14:55.916Z,7.90
2022-08-09T00:18:05.229Z,6.00
2022-08-09T00:20:20.806Z,6.20
2022-08-09T00:22:50.726Z,7.50
2022-08-09T00:25:23.423Z,6.40
2022-08-09T00:28:00.343Z,6.20
2022-08-09T00:30:33.702Z,5.80
2022-08-09T00:33:02.777Z,5.70
2022-08-09T00:35:43.039Z,5.20
2022-08-09T00:38:14.005Z,5.30
2022-08-09T00:40:52.766Z,6.50
2022-08-09T00:44:13.882Z,5.20
2022-08-09T00:46:28.269Z,4.50
2022-08-09T00:49:01.019Z,6.00
2022-08-09T00:51:34.045Z,7.50
2022-08-09T00:54:20.386Z,7.50
2022-08-09T00:56:51.259Z,6.00
2022-08-09T00:59:20.242Z,6.50
2022-08-09T01:02:09.016Z,7.90
2022-08-09T01:04:54.177Z,6.70
2022-08-09T01:07:38.113Z,8.00
2022-08-09T01:10:37.731Z,7.80
2022-08-09T01:13:41.905Z,7.30
2022-08-09T01:16:25.281Z,8.30
2022-08-09T01:19:01.706Z,9.20
2022-08-09T01:21:45.057Z,7.70
2022-08-09T01:24:25.856Z,7.70
2022-08-09T01:27:15.616Z,8.30
2022-08-09T01:29:59.209Z,7.20
2022-08-09T01:32:45.541Z,9.00
2022-08-09T01:35:42.618Z,9.30
2022-08-09T01:38:15.847Z,8.80
2022-08-09T01:40:53.045Z,8.60
2022-08-09T01:43:51.279Z,7.30
2022-08-09T01:46:26.781Z,8.60
2022-08-09T01:48:59.992Z,7.10
2022-08-09T01:51:53.889Z,6.40
2022-08-09T01:54:32.795Z,7.80
2022-08-09T01:57:12.097Z,9.90
2022-08-09T01:59:51.839Z,7.00
2022-08-09T02:02:30.137Z,7.20
2022-08-09T02:05:15.561Z,6.80
2022-08-09T02:08:39.589Z,6.10
2022-08-09T02:10:40.388Z,6.30
2022-08-09T02:13:13.067Z,8.50
2022-08-09T02:15:53.170Z,8.10
2022-08-09T02:18:29.061Z,7.80
2022-08-09T02:21:08.317Z,8.60
2022-08-09T02:23:43.128Z,8.60
2022-08-09T02:26:25.065Z,8.50
2022-08-09T02:29:01.918Z,8.90
2022-08-09T02:31:38.596Z,7.60
2022-08-09T02:34:40.067Z,9.10
2022-08-09T02:37:11.925Z,9.40
2022-08-09T02:39:49.779Z,8.00
2022-08-09T02:42:28.536Z,8.10
2022-08-09T02:45:03.544Z,10.00
2022-08-09T02:47:33.700Z,8.10
2022-08-09T02:50:26.887Z,7.00
2022-08-09T02:53:03.757Z,7.60
2022-08-09T02:55:57.580Z,8.40
2022-08-09T02:58:35.745Z,6.70
2022-08-09T03:01:07.775Z,6.70
2022-08-09T03:04:16.963Z,7.30
2022-08-09T03:06:29.116Z,8.00
2022-08-09T03:08:59.391Z,7.70
2022-08-09T03:11:29.976Z,9.00
2022-08-09T03:14:18.488Z,10.50
2022-08-09T03:16:48.607Z,10.00
2022-08-09T03:19:52.501Z,8.50
2022-08-09T03:22:11.805Z,7.90
2022-08-09T03:24:42.564Z,7.90
2022-08-09T03:27:22.302Z,9.30
2022-08-09T03:29:58.048Z,10.10
2022-08-09T03:32:31.916Z,10.40
2022-08-09T03:35:01.054Z,9.40
2022-08-09T03:37:55.497Z,8.90
2022-08-09T03:40:18.355Z,8.50
2022-08-09T03:42:47.177Z,9.30
2022-08-09T03:45:15.735Z,7.10
2022-08-09T03:47:46.638Z,10.00
2022-08-09T03:50:18.733Z,9.40
2022-08-09T03:53:03.161Z,9.40
2022-08-09T03:55:36.243Z,9.50
2022-08-09T03:58:14.975Z,9.10
2022-08-09T04:00:47.933Z,9.80
2022-08-09T04:03:24.995Z,9.00
2022-08-09T04:06:06.758Z,10.70
2022-08-09T04:08:35.586Z,7.10
2022-08-09T04:11:03.745Z,9.70
2022-08-09T04:14:37.670Z,8.70
2022-08-09T04:16:22.524Z,9.50
2022-08-09T04:18:51.311Z,8.90
2022-08-09T04:21:20.624Z,8.50
2022-08-09T04:23:52.406Z,8.40
2022-08-09T04:26:23.159Z,8.10
2022-08-09T04:28:56.140Z,8.80
2022-08-09T04:31:37.726Z,9.30
2022-08-09T04:34:19.202Z,9.90
2022-08-09T04:37:01.168Z,9.90
2022-08-09T04:39:30.870Z,9.90
2022-08-09T04:42:00.014Z,8.90
2022-08-09T04:44:31.110Z,8.10
2022-08-09T04:47:04.615Z,8.20
2022-08-09T04:49:53.381Z,8.70
2022-08-09T04:52:27.461Z,7.80
2022-08-09T04:54:57.648Z,8.80
2022-08-09T04:57:58.389Z,8.10
2022-08-09T05:00:17.282Z,9.30
2022-08-09T05:02:48.534Z,8.30
2022-08-09T05:05:31.912Z,8.10
2022-08-09T05:08:14.822Z,8.90
2022-08-09T05:10:44.722Z,10.10
2022-08-09T05:13:14.962Z,9.70
2022-08-09T05:15:52.146Z,9.60
2022-08-09T05:18:39.508Z,9.00
2022-08-09T05:21:23.148Z,10.90
2022-08-09T05:24:00.307Z,8.80
2022-08-09T05:26:36.853Z,10.20
2022-08-09T05:29:22.149Z,9.70
2022-08-09T05:31:57.312Z,11.00
2022-08-09T05:34:32.497Z,7.80
2022-08-09T05:37:06.790Z,9.90
2022-08-09T05:39:43.704Z,8.40
2022-08-09T05:42:20.851Z,8.70
2022-08-09T05:45:02.046Z,11.30
2022-08-09T05:47:33.435Z,9.50
2022-08-09T05:50:23.579Z,9.90
2022-08-09T05:52:53.307Z,10.80
2022-08-09T05:55:24.035Z,8.70
2022-08-09T05:57:56.543Z,10.20
2022-08-09T06:00:29.298Z,9.90
2022-08-09T06:03:00.098Z,9.40
2022-08-09T06:05:57.318Z,7.80
2022-08-09T06:08:24.677Z,8.90
2022-08-09T06:10:58.241Z,8.90
2022-08-09T06:13:33.741Z,8.20
2022-08-09T06:16:04.755Z,6.70
2022-08-09T06:18:35.056Z,6.90
2022-08-09T06:21:07.050Z,8.40
2022-08-09T06:23:57.873Z,10.20
2022-08-09T06:26:28.674Z,8.30
2022-08-09T06:28:59.592Z,9.70
2022-08-09T06:31:39.249Z,7.70
2022-08-09T06:34:19.297Z,8.10
2022-08-09T06:36:47.974Z,4.40
2022-08-09T06:39:17.458Z,5.80
2022-08-09T06:42:08.840Z,8.30
2022-08-09T06:44:35.658Z,6.40
2022-08-09T06:47:04.756Z,10.40
2022-08-09T06:50:11.837Z,6.70
2022-08-09T06:52:27.111Z,7.00
2022-08-09T06:54:55.697Z,7.10
2022-08-09T06:57:42.531Z,6.00
2022-08-09T07:00:56.083Z,6.30
2022-08-09T07:03:05.961Z,6.60
2022-08-09T07:05:53.837Z,6.90
2022-08-09T07:08:24.821Z,4.50
2022-08-09T07:10:53.461Z,7.10
2022-08-09T07:13:28.266Z,8.10
2022-08-09T07:16:43.973Z,6.50
2022-08-09T07:18:50.045Z,5.70
2022-08-09T07:21:20.973Z,6.80
2022-08-09T07:23:57.785Z,6.90
2022-08-09T07:26:27.563Z,7.40
2022-08-09T07:29:01.342Z,7.20
2022-08-09T07:31:45.426Z,7.00
2022-08-09T07:34:20.651Z,6.70
2022-08-09T07:36:50.877Z,8.30
2022-08-09T07:39:41.485Z,6.70
2022-08-09T07:42:12.257Z,7.20
2022-08-09T07:44:51.693Z,4.80
2022-08-09T07:47:27.794Z,4.50
2022-08-09T07:50:07.567Z,6.70
2022-08-09T07:52:43.060Z,6.00
2022-08-09T07:55:12.091Z,8.30
2022-08-09T07:57:47.005Z,7.20
2022-08-09T08:00:35.659Z,5.00
2022-08-09T08:03:08.465Z,6.70
2022-08-09T08:05:53.523Z,4.30
2022-08-09T08:08:59.894Z,5.00
2022-08-09T08:12:11.436Z,6.00
2022-08-09T08:14:04.885Z,3.80
2022-08-09T08:16:39.617Z,5.00
2022-08-09T08:19:19.520Z,4.90
2022-08-09T08:21:52.858Z,4.40
2022-08-09T08:24:22.599Z,3.80
2022-08-09T08:26:56.408Z,5.90
2022-08-09T08:29:27.662Z,4.90
2022-08-09T08:32:05.930Z,8.70
2022-08-09T08:34:36.109Z,5.50
2022-08-09T08:37:05.529Z,3.40
2022-08-09T08:39:43.643Z,4.60
2022-08-09T08:42:13.639Z,3.40
2022-08-09T08:44:44.351Z,4.80
2022-08-09T08:47:16.189Z,5.10
2022-08-09T08:49:47.940Z,5.50
2022-08-09T08:55:13.717Z,4.20
2022-08-09T08:57:57.235Z,3.40
2022-08-09T09:00:34.767Z,6.90
2022-08-09T09:03:11.198Z,4.70
2022-08-09T09:06:01.198Z,5.80
2022-08-09T09:08:42.069Z,4.30
2022-08-09T09:11:19.648Z,5.30
2022-08-09T09:13:58.501Z,4.10
2022-08-09T09:16:35.080Z,4.00
2022-08-09T09:22:23.884Z,2.80
2022-08-09T09:26:03.591Z,4.40
2022-08-09T09:28:06.018Z,4.00
2022-08-09T09:30:54.830Z,3.50
2022-08-09T09:33:44.423Z,3.90
2022-08-09T09:36:20.434Z,2.80
2022-08-09T09:38:58.636Z,3.40
2022-08-09T09:41:49.587Z,3.50
2022-08-09T09:44:34.512Z,3.50
2022-08-09T09:47:15.103Z,3.70
2022-08-09T09:50:13.465Z,2.90
2022-08-09T09:52:57.388Z,2.20
2022-08-09T09:55:33.427Z,3.30
2022-08-09T09:58:16.891Z,3.00
2022-08-09T10:00:58.512Z,3.50
2022-08-09T10:03:43.114Z,4.00
2022-08-09T10:06:14.100Z,2.30
2022-08-09T10:08:55.242Z,2.90
2022-08-09T10:12:00.914Z,3.30
2022-08-09T10:14:30.701Z,3.50
2022-08-09T10:17:40.238Z,2.60
2022-08-09T10:20:27.386Z,3.10
2022-08-09T10:23:17.420Z,2.40
2022-08-09T10:26:07.714Z,3.50
2022-08-09T10:28:44.935Z,4.20
2022-08-09T10:34:33.208Z,3.00
2022-08-09T10:37:04.658Z,2.30
2022-08-09T10:39:49.134Z,3.30
2022-08-09T10:42:21.635Z,4.00
2022-08-09T10:45:04.491Z,2.70
2022-08-09T10:48:14.396Z,2.90
2022-08-09T10:51:15.410Z,3.50
2022-08-09T10:54:13.126Z,2.80
2022-08-09T10:56:44.875Z,2.50
2022-08-09T10:59:23.316Z,4.10
2022-08-09T11:03:14.429Z,2.90
2022-08-09T11:05:25.416Z,3.50
2022-08-09T11:08:47.585Z,3.70
2022-08-09T11:11:19.211Z,3.60
2022-08-09T11:14:28.284Z,3.80
2022-08-09T11:16:59.293Z,3.00
2022-08-09T11:20:10.019Z,4.20
2022-08-09T11:22:41.725Z,3.80
2022-08-09T11:25:17.839Z,3.40
2022-08-09T11:28:02.872Z,4.40
2022-08-09T11:30:37.645Z,4.60
2022-08-09T11:33:16.887Z,3.50
2022-08-09T11:35:59.785Z,4.00
2022-08-09T11:38:41.446Z,3.00
2022-08-09T11:41:16.803Z,2.90
2022-08-09T11:43:49.671Z,3.50
2022-08-09T11:46:33.038Z,4.50
2022-08-09T11:49:05.151Z,4.80
2022-08-09T11:52:59.060Z,2.90
2022-08-09T11:55:51.761Z,3.00
2022-08-09T11:58:19.829Z,5.40
2022-08-09T12:01:08.246Z,2.40
2022-08-09T12:03:57.473Z,3.40
2022-08-09T12:06:32.806Z,4.50
2022-08-09T12:09:19.332Z,3.80
2022-08-09T12:12:13.271Z,4.20
2022-08-09T12:15:08.243Z,2.90
2022-08-09T12:17:42.989Z,3.50
2022-08-09T12:20:22.591Z,3.80
2022-08-09T12:22:57.834Z,2.50
2022-08-09T12:25:36.405Z,2.70
2022-08-09T12:29:14.070Z,4.40
2022-08-09T12:32:02.566Z,2.50
2022-08-09T12:34:39.945Z,4.40
2022-08-09T12:37:23.899Z,3.70
2022-08-09T12:40:10.235Z,2.60
2022-08-09T12:42:44.573Z,3.40
2022-08-09T12:45:34.873Z,3.00
2022-08-09T12:48:07.921Z,5.20
2022-08-09T12:50:51.384Z,2.60
2022-08-09T12:53:35.001Z,2.70
2022-08-09T12:56:43.788Z,2.50
2022-08-09T12:59:14.290Z,3.80
2022-08-09T13:01:49.087Z,4.20
2022-08-09T13:04:35.810Z,3.40
2022-08-09T13:07:17.011Z,3.50
2022-08-09T13:10:02.691Z,4.30
2022-08-09T13:12:32.250Z,2.90
2022-08-09T13:15:09.685Z,4.10
2022-08-09T13:18:03.545Z,4.30
2022-08-09T13:20:37.781Z,4.90
2022-08-09T13:24:17.350Z,4.20
2022-08-09T13:26:42.330Z,3.50
2022-08-09T13:29:13.313Z,2.60
2022-08-09T13:32:25.346Z,3.00
2022-08-09T13:35:11.952Z,4.10
2022-08-09T13:37:52.222Z,4.90
2022-08-09T13:41:56.661Z,3.40
2022-08-09T13:43:15.681Z,3.40
2022-08-09T13:46:42.983Z,2.80
2022-08-09T13:48:36.418Z,2.80
2022-08-09T13:51:04.800Z,2.80
2022-08-09T13:53:43.696Z,4.10
2022-08-09T13:56:13.126Z,2.70
2022-08-09T13:58:42.334Z,3.70
2022-08-09T14:01:55.710Z,5.70
2022-08-09T14:04:05.400Z,3.70
2022-08-09T14:06:43.861Z,4.90
2022-08-09T14:09:15.785Z,3.20
2022-08-09T14:11:47.957Z,3.70
2022-08-09T14:14:25.705Z,3.40
2022-08-09T14:16:56.944Z,2.80
2022-08-09T14:19:33.086Z,5.50
2022-08-09T14:22:02.339Z,3.80
2022-08-09T14:24:32.614Z,2.80
2022-08-09T14:27:02.356Z,3.50
2022-08-09T14:30:35.091Z,3.80
2022-08-09T14:32:28.804Z,3.90
2022-08-09T14:34:59.977Z,4.30
2022-08-09T14:37:41.176Z,3.50
2022-08-09T14:40:17.996Z,5.50
2022-08-09T14:43:06.277Z,3.90
2022-08-09T14:46:54.208Z,4.10
2022-08-09T14:48:29.979Z,3.70
2022-08-09T14:51:08.057Z,3.20
2022-08-09T14:53:48.680Z,4.40
2022-08-09T14:56:26.896Z,6.00
2022-08-09T14:58:57.964Z,4.30
2022-08-09T15:01:29.056Z,4.40
2022-08-09T15:04:01.033Z,4.80
2022-08-09T15:06:35.067Z,4.20
2022-08-09T15:09:09.737Z,4.70
2022-08-09T15:11:49.646Z,3.40
2022-08-09T15:14:27.814Z,4.30
2022-08-09T15:17:13.671Z,3.30
2022-08-09T15:19:59.797Z,4.80
2022-08-09T15:22:46.511Z,4.80
2022-08-09T15:25:41.255Z,3.60
2022-08-09T15:28:27.285Z,4.20
2022-08-09T15:31:18.693Z,3.90
2022-08-09T15:34:18.163Z,3.40
2022-08-09T15:36:54.163Z,3.00
2022-08-09T15:39:23.737Z,4.80
2022-08-09T15:41:52.301Z,3.40
2022-08-09T15:44:23.612Z,5.10
2022-08-09T15:46:53.406Z,3.30
2022-08-09T15:49:23.893Z,4.90
2022-08-09T15:52:03.406Z,4.20
2022-08-09T15:54:46.364Z,3.90
2022-08-09T15:57:34.581Z,4.50
2022-08-09T16:00:13.826Z,4.20
2022-08-09T16:02:53.817Z,3.90
2022-08-09T16:05:27.022Z,3.90
2022-08-09T16:08:30.083Z,3.30
2022-08-09T16:11:03.379Z,3.90
2022-08-09T16:14:03.954Z,4.50
2022-08-09T16:16:26.156Z,3.70
2022-08-09T16:18:58.497Z,5.00
2022-08-09T16:21:31.791Z,4.40
2022-08-09T16:24:08.864Z,5.80
2022-08-09T16:26:57.373Z,3.70
2022-08-09T16:29:37.662Z,3.90
2022-08-09T16:32:33.587Z,3.90
2022-08-09T16:35:03.166Z,3.40
2022-08-09T16:37:54.838Z,4.60
2022-08-09T16:40:29.504Z,3.20
2022-08-09T16:43:04.965Z,3.80
2022-08-09T16:45:33.650Z,3.70
2022-08-09T16:48:49.523Z,5.70
2022-08-09T16:50:59.781Z,3.90
2022-08-09T16:53:37.258Z,4.20
2022-08-09T16:56:10.137Z,5.00
2022-08-09T16:58:49.690Z,3.40
2022-08-09T17:01:23.770Z,3.30
2022-08-09T17:03:54.985Z,3.30
2022-08-09T17:06:31.183Z,3.80
2022-08-09T17:09:45.303Z,4.50
2022-08-09T17:11:52.403Z,3.90
2022-08-09T17:14:27.881Z,5.00
2022-08-09T17:17:01.797Z,4.30
2022-08-09T17:20:05.090Z,5.00
2022-08-09T17:22:30.951Z,3.20
2022-08-09T17:25:03.828Z,6.40
2022-08-09T17:27:37.536Z,4.70
2022-08-09T17:30:12.778Z,4.70
2022-08-09T17:32:46.355Z,3.80
2022-08-09T17:35:16.319Z,4.40
2022-08-09T17:38:14.536Z,4.10
2022-08-09T17:40:35.498Z,3.50
2022-08-09T17:43:32.886Z,4.20
2022-08-09T17:46:03.994Z,5.00
2022-08-09T17:48:39.752Z,3.30
2022-08-09T17:51:18.364Z,3.40
2022-08-09T17:53:55.213Z,5.20
2022-08-09T17:56:29.251Z,4.80
2022-08-09T17:59:09.527Z,3.10
2022-08-09T18:02:07.199Z,4.60
2022-08-09T18:04:31.263Z,4.60
2022-08-09T18:07:04.901Z,5.10
2022-08-09T18:09:41.352Z,4.10
2022-08-09T18:12:20.056Z,4.80
2022-08-09T18:14:53.827Z,3.90
2022-08-09T18:18:02.074Z,3.80
2022-08-09T18:20:55.300Z,4.60
2022-08-09T18:23:14.157Z,4.30
2022-08-09T18:25:59.719Z,5.50
2022-08-09T18:30:40.710Z,3.20
2022-08-09T18:31:32.395Z,4.00
2022-08-09T18:34:11.636Z,3.10
2022-08-09T18:36:41.009Z,5.20
2022-08-09T18:39:16.798Z,6.20
2022-08-09T18:41:52.601Z,4.10
2022-08-09T18:44:26.774Z,4.30
2022-08-09T18:47:05.091Z,4.30
2022-08-09T18:49:43.320Z,4.60
2022-08-09T18:52:28.646Z,6.40
2022-08-09T18:55:13.636Z,6.30
2022-08-09T18:57:45.397Z,4.70
2022-08-09T19:00:20.552Z,6.00
2022-08-09T19:02:57.787Z,5.50
2022-08-09T19:06:02.101Z,6.50
2022-08-09T19:08:19.973Z,5.70
2022-08-09T19:10:48.734Z,4.90
2022-08-09T19:13:22.954Z,3.70
2022-08-09T19:16:09.292Z,8.70
2022-08-09T19:18:45.417Z,4.40
2022-08-09T19:21:15.090Z,5.10
2022-08-09T19:24:37.923Z,5.30
2022-08-09T19:26:39.117Z,7.30
2022-08-09T19:29:18.304Z,5.60
2022-08-09T19:31:51.292Z,6.40
2022-08-09T19:34:24.557Z,6.00
2022-08-09T19:37:00.871Z,6.70
2022-08-09T19:40:02.820Z,5.40
2022-08-09T19:42:24.081Z,5.20
2022-08-09T19:44:58.966Z,6.90
2022-08-09T19:47:33.077Z,5.50
2022-08-09T19:50:49.141Z,5.90
2022-08-09T19:53:14.009Z,5.40
2022-08-09T19:56:02.568Z,5.10
2022-08-09T19:58:38.082Z,6.70
2022-08-09T20:01:17.624Z,7.10
2022-08-09T20:04:08.231Z,6.50
2022-08-09T20:06:46.098Z,6.90
2022-08-09T20:09:43.645Z,7.00
2022-08-09T20:12:29.854Z,14.40
2022-08-09T20:16:32.031Z,24.80
2022-08-09T20:17:56.285Z,22.80
2022-08-09T20:20:25.320Z,16.40
2022-08-09T20:22:56.730Z,13.30
2022-08-09T20:25:25.572Z,15.80
2022-08-09T20:27:54.124Z,10.30
2022-08-09T20:30:27.149Z,6.10
2022-08-09T20:32:57.498Z,6.20
2022-08-09T20:35:26.445Z,11.10
2022-08-09T20:38:20.752Z,9.70
2022-08-09T20:40:51.473Z,10.70
2022-08-09T20:43:25.713Z,9.90
2022-08-09T20:45:59.801Z,8.20
2022-08-09T20:48:31.812Z,9.60
2022-08-09T20:51:01.468Z,6.60
2022-08-09T20:53:37.200Z,7.30
2022-08-09T20:56:19.905Z,8.80
2022-08-09T20:58:54.438Z,9.30
2022-08-09T21:01:34.973Z,9.00
2022-08-09T21:05:57.914Z,6.50
2022-08-09T21:07:13.865Z,7.90
2022-08-09T21:09:55.519Z,8.70
2022-08-09T21:12:32.397Z,7.70
2022-08-09T21:15:12.800Z,6.80
2022-08-09T21:18:23.980Z,6.80
2022-08-09T21:20:44.739Z,7.90
2022-08-09T21:23:47.806Z,6.30
2022-08-09T21:26:24.849Z,7.70
2022-08-09T21:28:57.224Z,8.60
2022-08-09T21:31:48.492Z,10.30
2022-08-09T21:34:29.433Z,9.80
2022-08-09T21:37:00.095Z,8.30
2022-08-09T21:39:42.214Z,9.10
2022-08-09T21:42:39.973Z,8.30
2022-08-09T21:45:17.530Z,7.40
2022-08-09T21:47:50.998Z,7.10
2022-08-09T21:50:33.811Z,8.70
2022-08-09T21:53:15.626Z,9.60
2022-08-09T21:56:03.697Z,10.40
2022-08-09T21:58:38.201Z,7.40
2022-08-09T22:01:26.023Z,9.70
2022-08-09T22:04:00.694Z,12.00
2022-08-09T22:06:33.706Z,12.80
2022-08-09T22:09:04.626Z,9.20
2022-08-09T22:12:09.135Z,9.90
2022-08-09T22:14:33.862Z,10.80
2022-08-09T22:17:05.658Z,10.30
2022-08-09T22:19:59.748Z,9.80
2022-08-09T22:22:27.137Z,12.20
2022-08-09T22:26:04.533Z,9.50
2022-08-09T22:27:47.559Z,9.40
2022-08-09T22:30:25.913Z,9.60
2022-08-09T22:33:23.739Z,8.80
2022-08-09T22:36:10.146Z,6.80
2022-08-09T22:38:40.481Z,7.00
2022-08-09T22:41:24.140Z,8.00
2022-08-09T22:44:01.666Z,7.00
2022-08-09T22:48:11.604Z,7.50
2022-08-09T22:49:26.309Z,8.90
2022-08-09T22:52:03.982Z,7.30
2022-08-09T22:54:35.918Z,7.40
2022-08-09T22:57:07.315Z,7.60
2022-08-09T22:59:56.773Z,8.50
2022-08-09T23:02:28.530Z,9.20
2022-08-09T23:04:58.928Z,8.00
2022-08-09T23:08:22.379Z,8.20
2022-08-09T23:10:43.570Z,11.20
2022-08-09T23:13:13.809Z,7.70
2022-08-09T23:15:43.835Z,7.60
2022-08-09T23:18:33.994Z,10.40
2022-08-09T23:21:04.263Z,8.30
2022-08-09T23:23:35.574Z,10.70
2022-08-09T23:26:14.573Z,8.90
2022-08-09T23:28:49.453Z,7.40
2022-08-09T23:31:22.610Z,10.30
2022-08-09T23:33:53.082Z,9.20
2022-08-09T23:36:25.654Z,9.20
2022-08-09T23:38:58.268Z,7.60
2022-08-09T23:41:29.657Z,9.70
2022-08-09T23:44:03.886Z,8.90
2022-08-09T23:46:34.880Z,7.70
2022-08-09T23:49:12.644Z,9.40
2022-08-09T23:51:43.511Z,7.90
2022-08-09T23:54:15.638Z,7.70
2022-08-09T23:56:54.818Z,7.40
2022-08-09T23:59:47.755Z,8.90
